createdAt,value
2018-01-30T00:14:14.002Z,2.30
2018-01-30T00:19:14.984Z,2.43
2018-01-30T00:24:15.946Z,1.50
2018-01-30T00:29:16.935Z,1.70
2018-01-30T00:34:17.911Z,4.90
2018-01-30T00:39:18.891Z,1.93
2018-01-30T00:44:19.879Z,1.97
2018-01-30T00:49:20.859Z,3.30
2018-01-30T00:54:21.845Z,6.07
2018-01-30T00:59:22.835Z,3.17
2018-01-30T01:04:23.842Z,3.77
2018-01-30T01:09:25.574Z,4.10
2018-01-30T01:14:26.551Z,4.30
2018-01-30T01:19:27.540Z,3.13
2018-01-30T01:24:28.514Z,5.07
2018-01-30T01:29:29.553Z,5.20
2018-01-30T01:34:30.530Z,10.00
2018-01-30T01:39:31.498Z,6.43
2018-01-30T01:44:32.487Z,6.10
2018-01-30T01:49:33.470Z,6.93
2018-01-30T01:54:34.442Z,5.67
2018-01-30T01:59:35.410Z,4.70
2018-01-30T02:04:36.410Z,4.00
2018-01-30T02:09:37.391Z,4.80
2018-01-30T02:14:38.390Z,3.70
2018-01-30T02:19:39.386Z,4.90
2018-01-30T02:24:41.098Z,5.53
2018-01-30T02:29:42.850Z,7.07
2018-01-30T02:34:43.826Z,4.60
2018-01-30T02:39:44.806Z,5.07
2018-01-30T02:44:45.796Z,7.87
2018-01-30T02:49:46.779Z,5.07
2018-01-30T02:54:47.750Z,9.87
2018-01-30T02:59:48.723Z,5.57
2018-01-30T03:04:49.686Z,8.17
2018-01-30T03:09:50.666Z,7.43
2018-01-30T03:14:51.635Z,8.47
2018-01-30T03:19:52.602Z,7.73
2018-01-30T03:24:54.320Z,7.20
2018-01-30T03:29:55.303Z,6.90
2018-01-30T03:34:56.274Z,5.73
2018-01-30T03:39:58.003Z,5.53
2018-01-30T03:44:58.995Z,6.20
2018-01-30T03:49:59.991Z,5.50
2018-01-30T03:55:00.987Z,5.50
2018-01-30T04:00:01.985Z,5.17
2018-01-30T04:05:02.955Z,5.77
2018-01-30T04:10:03.926Z,5.27
2018-01-30T04:15:04.906Z,11.03
2018-01-30T04:20:05.902Z,13.93
2018-01-30T04:25:06.887Z,10.40
2018-01-30T04:30:07.862Z,5.80
2018-01-30T04:35:08.834Z,5.17
2018-01-30T04:40:09.807Z,12.80
2018-01-30T04:45:10.786Z,9.83
2018-01-30T04:50:11.759Z,7.63
2018-01-30T04:55:12.742Z,7.17
2018-01-30T05:00:13.726Z,7.30
2018-01-30T05:05:16.075Z,6.33
2018-01-30T05:10:17.118Z,10.23
2018-01-30T05:15:18.087Z,10.20
2018-01-30T05:20:19.066Z,9.67
2018-01-30T05:25:20.047Z,7.50
2018-01-30T05:30:21.023Z,5.60
2018-01-30T05:35:22.011Z,8.13
2018-01-30T05:40:23.010Z,10.50
2018-01-30T05:50:31.862Z,7.57
2018-01-30T05:55:32.834Z,13.67
2018-01-30T06:00:33.835Z,13.80
2018-01-30T06:05:34.808Z,10.93
2018-01-30T06:10:35.778Z,19.50
2018-01-30T06:15:38.682Z,20.27
2018-01-30T06:20:39.662Z,11.20
2018-01-30T06:25:40.634Z,10.67
2018-01-30T06:30:41.603Z,11.17
2018-01-30T06:35:43.346Z,8.37
2018-01-30T06:40:44.326Z,6.00
2018-01-30T06:45:45.303Z,12.53
2018-01-30T06:50:46.266Z,13.03
2018-01-30T06:55:47.234Z,14.33
2018-01-30T07:00:48.947Z,16.13
2018-01-30T07:05:49.918Z,21.30
2018-01-30T07:10:50.899Z,12.30
2018-01-30T07:15:52.613Z,14.13
2018-01-30T07:20:53.587Z,12.60
2018-01-30T07:25:54.554Z,15.60
2018-01-30T07:30:55.534Z,17.07
2018-01-30T07:35:57.251Z,12.67
2018-01-30T07:40:58.224Z,16.73
2018-01-30T07:45:59.215Z,13.00
2018-01-30T07:51:00.182Z,13.30
2018-01-30T07:56:01.902Z,10.17
2018-01-30T08:01:02.883Z,8.53
2018-01-30T08:06:03.871Z,6.70
2018-01-30T08:11:04.863Z,11.57
2018-01-30T08:16:05.842Z,6.03
2018-01-30T08:21:06.815Z,17.23
2018-01-30T08:26:07.799Z,9.63
2018-01-30T08:31:08.774Z,8.20
2018-01-30T08:36:09.739Z,6.73
2018-01-30T08:41:11.471Z,11.47
2018-01-30T08:46:12.473Z,8.50
2018-01-30T08:51:13.463Z,7.47
2018-01-30T08:56:14.450Z,13.93
2018-01-30T09:01:15.431Z,14.07
2018-01-30T09:06:16.414Z,10.20
2018-01-30T09:11:17.399Z,8.23
2018-01-30T09:16:18.370Z,7.80
2018-01-30T09:21:20.236Z,8.53
2018-01-30T09:26:21.227Z,6.67
2018-01-30T09:31:22.198Z,6.93
2018-01-30T09:36:23.186Z,4.97
2018-01-30T09:41:24.163Z,6.07
2018-01-30T09:46:25.155Z,5.53
2018-01-30T09:51:26.130Z,5.30
2018-01-30T09:56:27.114Z,9.93
2018-01-30T10:01:28.122Z,6.20
2018-01-30T10:06:29.891Z,6.23
2018-01-30T10:11:31.698Z,7.80
2018-01-30T10:16:32.678Z,9.00
2018-01-30T10:21:33.656Z,8.57
2018-01-30T10:26:34.623Z,8.53
2018-01-30T10:31:36.363Z,12.13
2018-01-30T10:36:37.339Z,9.00
2018-01-30T10:41:38.310Z,12.23
2018-01-30T10:46:39.280Z,6.43
2018-01-30T10:51:40.251Z,5.70
2018-01-30T10:56:41.954Z,3.90
2018-01-30T11:01:43.666Z,5.07
2018-01-30T11:06:44.648Z,5.10
2018-01-30T11:11:52.609Z,2.60
2018-01-30T11:16:53.599Z,3.93
2018-01-30T11:21:54.685Z,3.73
2018-01-30T11:26:55.569Z,3.93
2018-01-30T11:31:56.546Z,4.73
2018-01-30T11:36:57.530Z,3.10
2018-01-30T11:41:58.538Z,5.60
2018-01-30T11:46:59.523Z,5.90
2018-01-30T11:52:00.507Z,5.53
2018-01-30T11:57:01.829Z,8.37
2018-01-30T12:02:02.799Z,10.90
2018-01-30T12:07:04.585Z,8.77
2018-01-30T12:12:05.558Z,8.37
2018-01-30T12:17:06.536Z,7.37
2018-01-30T12:22:07.632Z,8.90
2018-01-30T12:27:08.604Z,8.30
2018-01-30T12:32:09.582Z,6.17
2018-01-30T12:37:10.550Z,7.67
2018-01-30T12:42:11.535Z,5.80
2018-01-30T12:47:12.556Z,3.30
2018-01-30T12:52:14.787Z,5.13
2018-01-30T12:57:16.884Z,6.07
2018-01-30T13:02:17.919Z,7.27
2018-01-30T13:07:18.945Z,4.17
2018-01-30T13:12:19.923Z,5.50
2018-01-30T13:17:21.639Z,7.73
2018-01-30T13:22:22.687Z,5.90
2018-01-30T13:27:23.814Z,6.00
2018-01-30T13:32:24.794Z,5.40
2018-01-30T13:37:25.766Z,7.43
2018-01-30T13:42:26.752Z,4.77
2018-01-30T13:47:28.516Z,7.80
2018-01-30T13:52:29.515Z,6.20
2018-01-30T13:57:30.635Z,7.17
2018-01-30T14:02:31.622Z,11.67
2018-01-30T14:07:32.592Z,9.70
2018-01-30T14:12:33.599Z,8.23
2018-01-30T14:17:34.572Z,10.77
2018-01-30T14:22:35.552Z,12.60
2018-01-30T14:27:36.584Z,15.83
2018-01-30T14:32:37.586Z,19.70
2018-01-30T14:37:39.318Z,16.80
2018-01-30T14:42:40.306Z,18.73
2018-01-30T14:47:56.234Z,15.07
2018-01-30T14:52:57.231Z,11.60
2018-01-30T14:57:58.205Z,10.70
2018-01-30T15:02:59.198Z,10.40
2018-01-30T15:08:00.227Z,9.83
2018-01-30T15:13:01.966Z,9.63
2018-01-30T15:18:02.950Z,7.07
2018-01-30T15:23:03.919Z,7.40
2018-01-30T15:28:04.891Z,10.30
2018-01-30T15:33:05.870Z,7.70
2018-01-30T15:38:07.106Z,7.33
2018-01-30T15:43:08.108Z,9.57
2018-01-30T15:48:09.110Z,6.90
2018-01-30T15:53:10.830Z,7.83
2018-01-30T15:58:11.902Z,8.70
2018-01-30T16:03:13.655Z,9.47
2018-01-30T16:08:14.640Z,10.80
2018-01-30T16:13:15.622Z,11.20
2018-01-30T16:18:16.854Z,12.40
2018-01-30T16:23:18.567Z,10.77
2018-01-30T16:28:19.542Z,20.10
2018-01-30T16:33:20.518Z,11.67
2018-01-30T16:38:22.263Z,12.37
2018-01-30T16:43:23.279Z,14.63
2018-01-30T16:48:24.274Z,19.23
2018-01-30T16:53:26.020Z,11.80
2018-01-30T16:58:27.007Z,18.77
2018-01-30T17:03:27.990Z,15.53
2018-01-30T17:08:28.979Z,15.53
2018-01-30T17:13:29.992Z,15.03
2018-01-30T17:18:30.983Z,12.13
2018-01-30T17:23:31.962Z,16.03
2018-01-30T17:28:32.945Z,14.10
2018-01-30T17:33:33.923Z,17.13
2018-01-30T17:38:34.910Z,15.73
2018-01-30T17:49:08.683Z,19.83
2018-01-30T17:54:09.675Z,17.50
2018-01-30T17:59:10.704Z,17.60
2018-01-30T18:04:12.500Z,16.10
2018-01-30T18:09:14.264Z,14.50
2018-01-30T18:14:15.280Z,18.13
2018-01-30T18:19:17.026Z,23.13
2018-01-30T18:24:18.046Z,18.30
2018-01-30T18:29:19.130Z,19.00
2018-01-30T18:34:20.160Z,18.43
2018-01-30T18:39:21.251Z,17.90
2018-01-30T18:44:22.310Z,17.83
2018-01-30T18:49:23.406Z,15.67
2018-01-30T18:54:24.454Z,14.77
2018-01-30T18:59:25.599Z,18.50
2018-01-30T19:04:26.627Z,17.00
2018-01-30T19:09:27.703Z,18.77
2018-01-30T19:14:28.713Z,19.87
2018-01-30T19:19:29.735Z,18.90
2018-01-30T19:24:30.755Z,15.80
2018-01-30T19:29:32.502Z,14.97
2018-01-30T19:34:33.526Z,17.40
2018-01-30T19:39:34.590Z,19.30
2018-01-30T19:44:35.583Z,17.63
2018-01-30T19:49:36.612Z,20.20
2018-01-30T19:54:37.658Z,21.37
2018-01-30T19:59:38.679Z,20.97
2018-01-30T20:04:40.570Z,20.63
2018-01-30T20:09:42.331Z,21.53
2018-01-30T20:14:43.331Z,21.97
2018-01-30T20:19:44.379Z,22.27
2018-01-30T20:24:45.421Z,23.37
2018-01-30T20:29:47.227Z,20.37
2018-01-30T20:34:48.334Z,24.03
2018-01-30T20:39:49.390Z,26.47
2018-01-30T20:44:50.382Z,26.73
2018-01-30T20:49:52.102Z,24.53
2018-01-30T20:54:53.083Z,26.33
2018-01-30T20:59:54.151Z,31.47
2018-01-30T21:04:55.897Z,29.87
2018-01-30T21:09:56.883Z,27.80
2018-01-30T21:14:57.942Z,33.50
2018-01-30T21:19:59.654Z,31.13
2018-01-30T21:25:00.638Z,30.33
2018-01-30T21:30:01.630Z,33.57
2018-01-30T21:35:02.719Z,28.63
2018-01-30T21:40:03.743Z,30.77
2018-01-30T21:45:05.470Z,29.50
2018-01-30T21:50:06.550Z,33.83
2018-01-30T21:55:07.612Z,32.90
2018-01-30T22:00:09.351Z,28.07
2018-01-30T22:05:10.354Z,28.13
2018-01-30T22:10:11.340Z,31.77
2018-01-30T22:15:12.404Z,29.10
2018-01-30T22:20:13.403Z,25.80
2018-01-30T22:25:14.463Z,33.27
2018-01-30T22:30:15.463Z,46.90
2018-01-30T22:35:16.453Z,29.50
2018-01-30T22:40:17.442Z,29.00
2018-01-30T22:45:18.454Z,33.53
